createdAt,value
2022-12-22T00:00:05.892Z,32.20
2022-12-22T00:00:37.296Z,32.15
2022-12-22T00:01:08.695Z,32.34
2022-12-22T00:01:42.302Z,32.26
2022-12-22T00:02:18.078Z,32.14
2022-12-22T00:02:49.817Z,32.29
2022-12-22T00:03:21.453Z,32.42
2022-12-22T00:03:53.087Z,32.26
2022-12-22T00:04:24.515Z,32.23
2022-12-22T00:04:55.951Z,32.29
2022-12-22T00:05:27.281Z,32.34
2022-12-22T00:05:58.632Z,32.30
2022-12-22T00:06:30.075Z,32.43
2022-12-22T00:07:01.451Z,32.35
2022-12-22T00:07:32.866Z,32.30
2022-12-22T00:08:04.243Z,32.12
2022-12-22T00:08:35.616Z,32.27
2022-12-22T00:09:07.081Z,32.21
2022-12-22T00:09:38.443Z,32.23
2022-12-22T00:10:09.810Z,32.14
2022-12-22T00:10:41.242Z,32.29
2022-12-22T00:11:12.651Z,32.41
2022-12-22T00:11:44.045Z,32.43
2022-12-22T00:12:15.611Z,32.46
2022-12-22T00:12:46.979Z,32.42
2022-12-22T00:13:18.414Z,32.28
2022-12-22T00:13:49.797Z,32.19
2022-12-22T00:14:21.247Z,32.42
2022-12-22T00:14:52.688Z,32.39
2022-12-22T00:15:24.062Z,32.35
2022-12-22T00:15:55.468Z,32.38
2022-12-22T00:16:26.949Z,32.23
2022-12-22T00:16:58.388Z,32.58
2022-12-22T00:17:29.779Z,32.37
2022-12-22T00:18:01.183Z,32.29
2022-12-22T00:18:32.642Z,32.24
2022-12-22T00:19:04.074Z,32.40
2022-12-22T00:19:35.481Z,32.31
2022-12-22T00:20:06.905Z,32.20
2022-12-22T00:20:38.260Z,32.31
2022-12-22T00:21:09.627Z,32.39
2022-12-22T00:21:41.019Z,32.46
2022-12-22T00:22:12.545Z,32.26
2022-12-22T00:22:43.906Z,32.30
2022-12-22T00:23:15.284Z,32.34
2022-12-22T00:23:46.639Z,32.29
2022-12-22T00:24:18.100Z,32.26
2022-12-22T00:24:49.467Z,32.33
2022-12-22T00:25:20.845Z,32.22
2022-12-22T00:25:52.333Z,32.39
2022-12-22T00:26:23.711Z,32.25
2022-12-22T00:26:55.153Z,32.45
2022-12-22T00:27:26.555Z,32.40
2022-12-22T00:27:57.959Z,32.34
2022-12-22T00:28:29.351Z,32.34
2022-12-22T00:29:00.700Z,32.32
2022-12-22T00:29:32.147Z,32.40
2022-12-22T00:30:04.136Z,32.53
2022-12-22T00:30:35.571Z,32.35
2022-12-22T00:31:07.068Z,32.42
2022-12-22T00:31:38.531Z,32.33
2022-12-22T00:32:09.880Z,32.35
2022-12-22T00:32:41.289Z,32.41
2022-12-22T00:33:12.733Z,32.24
2022-12-22T00:33:44.104Z,32.48
2022-12-22T00:34:15.510Z,32.32
2022-12-22T00:34:46.942Z,32.28
2022-12-22T00:35:18.308Z,32.48
2022-12-22T00:35:49.722Z,32.47
2022-12-22T00:36:21.256Z,32.30
2022-12-22T00:36:52.776Z,32.55
2022-12-22T00:37:24.154Z,32.39
2022-12-22T00:37:55.509Z,32.32
2022-12-22T00:38:26.873Z,32.49
2022-12-22T00:38:58.236Z,32.34
2022-12-22T00:39:29.593Z,32.31
2022-12-22T00:40:01.005Z,32.26
2022-12-22T00:40:32.378Z,32.53
2022-12-22T00:41:03.780Z,32.36
2022-12-22T00:41:35.119Z,32.52
2022-12-22T00:42:06.515Z,32.31
2022-12-22T00:42:37.935Z,32.35
2022-12-22T00:43:09.327Z,32.32
2022-12-22T00:43:40.722Z,32.39
2022-12-22T00:44:12.109Z,32.28
2022-12-22T00:44:43.472Z,32.30
2022-12-22T00:45:14.900Z,32.39
2022-12-22T00:45:46.292Z,32.50
2022-12-22T00:46:17.810Z,32.47
2022-12-22T00:46:49.260Z,32.38
2022-12-22T00:47:20.680Z,32.38
2022-12-22T00:47:52.033Z,32.46
2022-12-22T00:48:23.476Z,32.48
2022-12-22T00:48:54.853Z,32.57
2022-12-22T00:49:26.235Z,32.48
2022-12-22T00:49:57.657Z,32.43
2022-12-22T00:50:29.004Z,32.46
2022-12-22T00:51:00.392Z,32.51
2022-12-22T00:51:31.843Z,32.40
2022-12-22T00:52:03.347Z,32.33
2022-12-22T00:52:34.729Z,32.25
2022-12-22T00:53:06.098Z,32.58
2022-12-22T00:53:37.480Z,32.47
2022-12-22T00:54:09.040Z,32.37
2022-12-22T00:54:40.566Z,32.48
2022-12-22T00:55:11.941Z,32.53
2022-12-22T00:55:43.318Z,32.48
2022-12-22T00:56:14.700Z,32.52
2022-12-22T00:56:46.108Z,32.41
2022-12-22T00:57:17.533Z,32.52
2022-12-22T00:57:48.962Z,32.42
2022-12-22T00:58:20.332Z,32.45
2022-12-22T00:58:51.714Z,32.49
2022-12-22T00:59:23.153Z,32.39
2022-12-22T00:59:54.538Z,32.32
2022-12-22T01:00:25.968Z,32.39
2022-12-22T01:00:57.352Z,32.53
2022-12-22T01:01:28.813Z,32.43
2022-12-22T01:02:00.431Z,32.54
2022-12-22T01:02:32.162Z,32.54
2022-12-22T01:03:03.761Z,32.49
2022-12-22T01:03:35.327Z,32.50
2022-12-22T01:04:06.787Z,32.43
2022-12-22T01:04:38.212Z,32.39
2022-12-22T01:05:09.607Z,32.29
2022-12-22T01:05:40.973Z,32.40
2022-12-22T01:06:12.567Z,32.49
2022-12-22T01:06:44.005Z,32.62
2022-12-22T01:07:15.437Z,32.46
2022-12-22T01:07:46.904Z,32.41
2022-12-22T01:08:18.295Z,32.49
2022-12-22T01:08:49.647Z,32.42
2022-12-22T01:09:21.080Z,32.50
2022-12-22T01:09:52.448Z,32.42
2022-12-22T01:10:23.853Z,32.43
2022-12-22T01:10:55.303Z,32.36
2022-12-22T01:11:26.734Z,32.58
2022-12-22T01:11:58.086Z,32.43
2022-12-22T01:12:29.973Z,32.43
2022-12-22T01:13:01.375Z,32.50
2022-12-22T01:13:32.742Z,32.45
2022-12-22T01:14:04.120Z,32.38
2022-12-22T01:14:35.560Z,32.46
2022-12-22T01:15:06.986Z,32.45
2022-12-22T01:15:38.373Z,32.38
2022-12-22T01:16:09.871Z,32.40
2022-12-22T01:16:41.303Z,32.45
2022-12-22T01:17:12.700Z,32.41
2022-12-22T01:17:44.063Z,32.40
2022-12-22T01:18:15.491Z,32.53
2022-12-22T01:18:46.830Z,32.49
2022-12-22T01:19:18.276Z,32.46
2022-12-22T01:19:49.647Z,32.52
2022-12-22T01:20:21.094Z,32.54
2022-12-22T01:20:52.443Z,32.54
2022-12-22T01:21:23.842Z,32.43
2022-12-22T01:21:55.263Z,32.58
2022-12-22T01:22:26.626Z,32.53
2022-12-22T01:22:57.961Z,32.41
2022-12-22T01:23:29.390Z,32.38
2022-12-22T01:24:00.841Z,32.44
2022-12-22T01:24:32.342Z,32.57
2022-12-22T01:25:03.741Z,32.42
2022-12-22T01:25:35.128Z,32.71
2022-12-22T01:26:06.567Z,32.53
2022-12-22T01:26:37.989Z,32.48
2022-12-22T01:27:09.401Z,32.46
2022-12-22T01:27:40.783Z,32.44
2022-12-22T01:28:12.177Z,32.35
2022-12-22T01:28:43.735Z,32.55
2022-12-22T01:29:15.218Z,32.40
2022-12-22T01:29:46.660Z,32.42
2022-12-22T01:30:18.169Z,32.50
2022-12-22T01:30:49.535Z,32.46
2022-12-22T01:31:20.943Z,32.42
2022-12-22T01:31:52.292Z,32.49
2022-12-22T01:32:23.692Z,32.46
2022-12-22T01:32:55.109Z,32.60
2022-12-22T01:33:26.470Z,32.53
2022-12-22T01:33:57.901Z,32.61
2022-12-22T01:34:29.268Z,32.60
2022-12-22T01:35:00.675Z,32.51
2022-12-22T01:35:32.119Z,32.46
2022-12-22T01:36:03.604Z,32.29
2022-12-22T01:36:35.080Z,32.57
2022-12-22T01:37:06.518Z,32.38
2022-12-22T01:37:37.879Z,32.51
2022-12-22T01:38:09.295Z,32.50
2022-12-22T01:38:40.714Z,32.48
2022-12-22T01:39:12.091Z,32.54
2022-12-22T01:39:43.437Z,32.59
2022-12-22T01:40:14.835Z,32.52
2022-12-22T01:40:46.245Z,32.51
2022-12-22T01:41:17.639Z,32.51
2022-12-22T01:41:49.048Z,32.62
2022-12-22T01:42:20.507Z,32.60
2022-12-22T01:42:51.917Z,32.58
2022-12-22T01:43:23.345Z,32.55
2022-12-22T01:43:54.787Z,32.68
2022-12-22T01:44:26.115Z,32.61
2022-12-22T01:44:57.517Z,32.51
2022-12-22T01:45:28.872Z,32.57
2022-12-22T01:46:00.292Z,32.50
2022-12-22T01:46:31.729Z,32.56
2022-12-22T01:47:03.134Z,32.48
2022-12-22T01:47:34.558Z,32.58
2022-12-22T01:48:06.195Z,32.45
2022-12-22T01:48:37.630Z,32.60
2022-12-22T01:49:09.105Z,32.58
2022-12-22T01:49:40.556Z,32.63
2022-12-22T01:50:11.931Z,32.68
2022-12-22T01:50:43.363Z,32.67
2022-12-22T01:51:14.835Z,32.61
2022-12-22T01:51:46.220Z,32.71
2022-12-22T01:52:17.612Z,32.67
2022-12-22T01:52:48.999Z,32.54
2022-12-22T01:53:20.345Z,32.69
2022-12-22T01:53:51.680Z,32.61
2022-12-22T01:54:23.262Z,32.55
2022-12-22T01:54:54.649Z,32.58
2022-12-22T01:55:26.068Z,32.49
2022-12-22T01:55:57.455Z,32.59
2022-12-22T01:56:28.808Z,32.50
2022-12-22T01:57:00.287Z,32.52
2022-12-22T01:57:31.664Z,32.61
2022-12-22T01:58:03.151Z,32.53
2022-12-22T01:58:34.548Z,32.57
2022-12-22T01:59:05.979Z,32.57
2022-12-22T01:59:37.570Z,32.53
2022-12-22T02:00:09.020Z,32.58
2022-12-22T02:00:40.394Z,32.48
2022-12-22T02:01:11.742Z,32.38
2022-12-22T02:01:43.241Z,32.84
2022-12-22T02:02:14.852Z,32.71
2022-12-22T02:02:46.487Z,32.63
2022-12-22T02:03:18.032Z,32.67
2022-12-22T02:03:49.474Z,32.55
2022-12-22T02:04:20.950Z,32.59
2022-12-22T02:04:52.370Z,32.61
2022-12-22T02:05:23.731Z,32.45
2022-12-22T02:05:55.182Z,32.62
2022-12-22T02:06:26.562Z,32.69
2022-12-22T02:07:00.189Z,32.57
2022-12-22T02:07:31.923Z,32.69
2022-12-22T02:08:03.282Z,32.70
2022-12-22T02:08:34.668Z,32.61
2022-12-22T02:09:06.020Z,32.63
2022-12-22T02:09:37.404Z,32.65
2022-12-22T02:10:08.899Z,32.48
2022-12-22T02:10:40.300Z,32.67
2022-12-22T02:11:11.645Z,32.46
2022-12-22T02:11:43.046Z,32.68
2022-12-22T02:12:14.611Z,32.54
2022-12-22T02:12:46.226Z,32.66
2022-12-22T02:13:17.629Z,32.76
2022-12-22T02:13:49.109Z,32.50
2022-12-22T02:14:24.754Z,32.58
2022-12-22T02:14:59.242Z,32.66
2022-12-22T02:15:30.691Z,32.72
2022-12-22T02:16:02.127Z,32.58
2022-12-22T02:16:33.618Z,32.60
2022-12-22T02:17:05.073Z,32.65
2022-12-22T02:17:36.405Z,32.58
2022-12-22T02:18:07.840Z,32.61
2022-12-22T02:18:39.298Z,32.65
2022-12-22T02:19:10.698Z,32.69
2022-12-22T02:19:42.044Z,32.61
2022-12-22T02:20:13.450Z,32.61
2022-12-22T02:20:44.854Z,32.69
2022-12-22T02:21:16.264Z,32.68
2022-12-22T02:21:47.652Z,32.58
2022-12-22T02:22:19.071Z,32.57
2022-12-22T02:22:50.418Z,32.78
2022-12-22T02:23:21.824Z,32.57
2022-12-22T02:23:53.188Z,32.80
2022-12-22T02:24:24.762Z,32.86
2022-12-22T02:24:56.214Z,32.61
2022-12-22T02:25:27.628Z,32.82
2022-12-22T02:25:59.044Z,32.62
2022-12-22T02:26:30.396Z,32.79
2022-12-22T02:27:01.832Z,32.55
2022-12-22T02:27:33.258Z,32.57
2022-12-22T02:28:04.688Z,32.36
2022-12-22T02:28:36.049Z,32.68
2022-12-22T02:29:07.421Z,32.55
2022-12-22T02:29:38.791Z,32.58
2022-12-22T02:30:11.082Z,32.47
2022-12-22T02:30:42.465Z,32.58
2022-12-22T02:31:13.925Z,32.59
2022-12-22T02:31:45.389Z,32.65
2022-12-22T02:32:17.719Z,32.78
2022-12-22T02:32:49.141Z,32.64
2022-12-22T02:33:20.506Z,32.55
2022-12-22T02:33:51.860Z,32.60
2022-12-22T02:34:23.275Z,32.79
2022-12-22T02:34:54.622Z,32.68
2022-12-22T02:35:25.983Z,32.66
2022-12-22T02:35:57.341Z,32.67
2022-12-22T02:36:28.944Z,32.40
2022-12-22T02:37:00.382Z,32.69
2022-12-22T02:37:31.867Z,32.54
2022-12-22T02:38:03.459Z,32.74
2022-12-22T02:38:34.905Z,32.58
2022-12-22T02:39:06.266Z,32.60
2022-12-22T02:39:37.683Z,32.54
2022-12-22T02:40:09.032Z,32.81
2022-12-22T02:40:41.792Z,32.74
2022-12-22T02:41:13.401Z,32.59
2022-12-22T02:41:44.832Z,32.57
2022-12-22T02:42:16.176Z,32.68
2022-12-22T02:42:47.532Z,32.67
2022-12-22T02:43:18.887Z,32.67
2022-12-22T02:43:50.227Z,32.54
2022-12-22T02:44:21.596Z,32.59
2022-12-22T02:44:52.959Z,32.57
2022-12-22T02:45:24.323Z,32.71
2022-12-22T02:45:55.796Z,32.69
2022-12-22T02:46:27.182Z,32.58
2022-12-22T02:46:58.829Z,32.58
2022-12-22T02:47:30.265Z,32.68
2022-12-22T02:48:01.599Z,32.48
2022-12-22T02:48:33.016Z,32.66
2022-12-22T02:49:04.439Z,32.66
2022-12-22T02:49:35.811Z,32.67
2022-12-22T02:50:07.207Z,32.61
2022-12-22T02:50:38.609Z,32.39
2022-12-22T02:51:09.968Z,32.61
2022-12-22T02:51:41.336Z,32.67
2022-12-22T02:52:12.783Z,32.52
2022-12-22T02:52:44.221Z,32.66
2022-12-22T02:53:15.590Z,32.60
2022-12-22T02:53:47.089Z,32.67
2022-12-22T02:54:18.859Z,32.62
2022-12-22T02:54:50.332Z,32.70
2022-12-22T02:55:21.716Z,32.79
2022-12-22T02:55:53.111Z,32.71
2022-12-22T02:56:24.645Z,32.75
2022-12-22T02:56:56.187Z,32.48
2022-12-22T02:57:27.685Z,32.57
2022-12-22T02:57:59.109Z,32.67
2022-12-22T02:58:30.476Z,32.65
2022-12-22T02:59:01.837Z,32.58
2022-12-22T02:59:33.205Z,32.58
2022-12-22T03:00:04.541Z,32.54
2022-12-22T03:00:35.925Z,32.51
2022-12-22T03:01:07.515Z,32.82
2022-12-22T03:01:39.077Z,32.81
2022-12-22T03:02:10.778Z,32.73
2022-12-22T03:02:42.621Z,32.67
2022-12-22T03:03:14.319Z,32.63
2022-12-22T03:03:45.993Z,32.63
2022-12-22T03:04:17.454Z,32.62
2022-12-22T03:04:48.846Z,32.75
2022-12-22T03:05:20.204Z,32.78
2022-12-22T03:05:51.612Z,32.59
2022-12-22T03:06:22.990Z,32.74
2022-12-22T03:06:54.395Z,32.66
2022-12-22T03:07:25.821Z,32.71
2022-12-22T03:07:57.290Z,32.72
2022-12-22T03:08:28.678Z,32.62
2022-12-22T03:09:00.107Z,32.77
2022-12-22T03:09:31.481Z,32.61
2022-12-22T03:10:02.846Z,32.80
2022-12-22T03:10:34.312Z,32.79
2022-12-22T03:11:05.690Z,32.64
2022-12-22T03:11:37.088Z,32.52
2022-12-22T03:12:08.627Z,32.57
2022-12-22T03:12:40.195Z,32.78
2022-12-22T03:13:11.612Z,32.68
2022-12-22T03:13:42.999Z,32.56
2022-12-22T03:14:14.364Z,32.78
2022-12-22T03:14:45.788Z,32.78
2022-12-22T03:15:17.177Z,32.62
2022-12-22T03:15:48.608Z,32.71
2022-12-22T03:16:20.338Z,32.55
2022-12-22T03:16:51.753Z,32.78
2022-12-22T03:17:23.194Z,32.79
2022-12-22T03:17:54.594Z,32.60
2022-12-22T03:18:25.946Z,32.67
2022-12-22T03:18:57.414Z,32.68
2022-12-22T03:19:28.954Z,32.79
2022-12-22T03:20:00.327Z,32.83
2022-12-22T03:20:31.747Z,32.69
2022-12-22T03:21:03.149Z,32.50
2022-12-22T03:21:34.524Z,32.89
2022-12-22T03:22:05.906Z,32.62
2022-12-22T03:22:37.270Z,32.65
2022-12-22T03:23:08.609Z,32.67
2022-12-22T03:23:40.036Z,32.76
2022-12-22T03:24:11.489Z,32.76
2022-12-22T03:24:43.032Z,32.84
2022-12-22T03:25:14.407Z,32.53
2022-12-22T03:25:45.771Z,32.67
2022-12-22T03:26:17.211Z,32.83
2022-12-22T03:26:48.566Z,32.76
2022-12-22T03:27:19.951Z,32.66
2022-12-22T03:27:51.318Z,32.80
2022-12-22T03:28:22.758Z,32.71
2022-12-22T03:28:54.124Z,32.79
2022-12-22T03:29:25.475Z,32.67
2022-12-22T03:29:56.890Z,32.78
2022-12-22T03:30:28.302Z,32.89
2022-12-22T03:30:59.753Z,32.78
2022-12-22T03:31:31.243Z,32.81
2022-12-22T03:32:02.678Z,32.77
2022-12-22T03:32:34.060Z,32.79
2022-12-22T03:33:05.520Z,32.72
2022-12-22T03:33:36.894Z,32.97
2022-12-22T03:34:08.251Z,32.66
2022-12-22T03:34:39.682Z,32.71
2022-12-22T03:35:11.081Z,32.91
2022-12-22T03:35:42.463Z,32.89
2022-12-22T03:36:14.002Z,32.78
2022-12-22T03:36:45.406Z,32.76
2022-12-22T03:37:16.796Z,32.86
2022-12-22T03:37:48.170Z,32.72
2022-12-22T03:38:19.544Z,32.80
2022-12-22T03:38:50.949Z,32.71
2022-12-22T03:39:22.327Z,32.67
2022-12-22T03:39:53.768Z,32.87
2022-12-22T03:40:25.249Z,32.80
2022-12-22T03:40:56.621Z,32.78
2022-12-22T03:41:27.958Z,32.82
2022-12-22T03:41:59.322Z,32.79
2022-12-22T03:42:30.748Z,32.76
2022-12-22T03:43:02.148Z,32.80
2022-12-22T03:43:33.513Z,32.83
2022-12-22T03:44:04.965Z,32.67
2022-12-22T03:44:36.330Z,32.79
2022-12-22T03:45:07.700Z,32.80
2022-12-22T03:45:39.293Z,32.94
2022-12-22T03:46:10.683Z,32.80
2022-12-22T03:46:42.132Z,32.89
2022-12-22T03:47:13.591Z,32.79
2022-12-22T03:47:44.999Z,32.76
2022-12-22T03:48:16.536Z,32.84
2022-12-22T03:48:47.927Z,32.74
2022-12-22T03:49:19.263Z,32.68
2022-12-22T03:49:50.701Z,32.89
2022-12-22T03:50:22.109Z,32.67
2022-12-22T03:50:53.539Z,32.72
2022-12-22T03:51:24.892Z,32.79
2022-12-22T03:51:56.283Z,32.67
2022-12-22T03:52:27.754Z,32.79
2022-12-22T03:52:59.133Z,32.86
2022-12-22T03:53:30.563Z,32.83
2022-12-22T03:54:02.035Z,32.74
2022-12-22T03:54:33.436Z,32.78
2022-12-22T03:55:04.823Z,32.80
2022-12-22T03:55:36.206Z,32.84
2022-12-22T03:56:08.224Z,32.82
2022-12-22T03:56:39.759Z,32.76
2022-12-22T03:57:11.160Z,32.77
2022-12-22T03:57:42.542Z,32.77
2022-12-22T03:58:13.954Z,32.74
2022-12-22T03:58:45.397Z,32.94
2022-12-22T03:59:16.767Z,32.78
2022-12-22T03:59:48.146Z,32.76
2022-12-22T04:00:19.489Z,32.94
2022-12-22T04:00:50.976Z,32.85
2022-12-22T04:01:22.478Z,32.88
2022-12-22T04:01:53.978Z,32.85
2022-12-22T04:02:25.548Z,32.84
2022-12-22T04:02:57.047Z,32.74
2022-12-22T04:03:28.525Z,32.79
2022-12-22T04:03:59.921Z,32.74
2022-12-22T04:04:31.325Z,32.79
2022-12-22T04:05:02.716Z,32.75
2022-12-22T04:05:34.089Z,32.87
2022-12-22T04:06:05.561Z,32.75
2022-12-22T04:06:36.962Z,32.74
2022-12-22T04:07:08.362Z,32.84
2022-12-22T04:07:39.743Z,32.93
2022-12-22T04:08:11.095Z,32.62
2022-12-22T04:08:42.513Z,32.74
2022-12-22T04:09:13.891Z,32.94
2022-12-22T04:09:45.279Z,32.91
2022-12-22T04:10:17.520Z,32.86
2022-12-22T04:10:48.860Z,32.92
2022-12-22T04:11:20.244Z,32.91
2022-12-22T04:11:51.633Z,32.73
2022-12-22T04:12:23.124Z,32.86
2022-12-22T04:12:54.598Z,32.74
2022-12-22T04:13:26.011Z,32.92
2022-12-22T04:13:57.365Z,32.70
2022-12-22T04:14:33.842Z,32.84
2022-12-22T04:15:06.178Z,32.79
2022-12-22T04:15:37.563Z,32.79
2022-12-22T04:16:09.013Z,32.76
2022-12-22T04:16:40.450Z,32.91
2022-12-22T04:17:11.876Z,32.91
2022-12-22T04:17:43.276Z,32.95
2022-12-22T04:18:14.785Z,32.83
2022-12-22T04:18:46.218Z,32.76
2022-12-22T04:19:17.609Z,32.77
2022-12-22T04:19:49.052Z,32.96
2022-12-22T04:20:20.423Z,32.66
2022-12-22T04:20:51.835Z,32.84
2022-12-22T04:21:23.236Z,32.81
2022-12-22T04:21:54.654Z,32.87
2022-12-22T04:22:26.127Z,32.87
2022-12-22T04:22:57.594Z,32.87
2022-12-22T04:23:29.011Z,32.95
2022-12-22T04:24:00.409Z,32.75
2022-12-22T04:24:31.799Z,32.95
2022-12-22T04:25:03.178Z,32.77
2022-12-22T04:25:34.537Z,32.84
2022-12-22T04:26:05.901Z,32.93
2022-12-22T04:26:37.283Z,32.95
2022-12-22T04:27:08.674Z,32.85
2022-12-22T04:27:40.046Z,32.91
2022-12-22T04:28:11.515Z,32.62
2022-12-22T04:28:42.925Z,33.02
2022-12-22T04:29:14.380Z,32.83
2022-12-22T04:29:45.781Z,33.02
2022-12-22T04:30:17.295Z,32.70
2022-12-22T04:30:48.691Z,32.86
2022-12-22T04:31:20.128Z,32.79
2022-12-22T04:31:51.662Z,33.10
2022-12-22T04:32:23.063Z,32.86
2022-12-22T04:32:54.434Z,33.00
2022-12-22T04:33:25.935Z,33.01
2022-12-22T04:33:57.276Z,32.93
2022-12-22T04:34:28.595Z,32.90
2022-12-22T04:35:00.088Z,32.91
2022-12-22T04:35:31.484Z,32.94
2022-12-22T04:36:03.054Z,32.89
2022-12-22T04:36:34.430Z,32.94
2022-12-22T04:37:16.493Z,32.84
2022-12-22T04:37:48.329Z,33.01
2022-12-22T04:38:19.697Z,32.87
2022-12-22T04:38:51.225Z,33.09
2022-12-22T04:39:22.616Z,32.88
2022-12-22T04:39:54.024Z,32.88
2022-12-22T04:40:25.416Z,33.13
2022-12-22T04:40:56.806Z,32.87
2022-12-22T04:41:28.192Z,33.14
2022-12-22T04:41:59.541Z,32.88
2022-12-22T04:42:30.937Z,32.76
2022-12-22T04:43:02.363Z,32.85
2022-12-22T04:43:33.733Z,33.00
2022-12-22T04:44:05.115Z,32.80
2022-12-22T04:44:36.592Z,32.91
2022-12-22T04:45:07.991Z,32.94
2022-12-22T04:45:39.520Z,32.94
2022-12-22T04:46:10.994Z,32.91
2022-12-22T04:46:42.360Z,32.87
2022-12-22T04:47:13.726Z,32.82
2022-12-22T04:47:45.097Z,32.79
2022-12-22T04:48:16.525Z,32.83
2022-12-22T04:48:47.933Z,32.86
2022-12-22T04:49:19.289Z,32.82
2022-12-22T04:49:50.714Z,32.87
2022-12-22T04:50:22.173Z,33.03
2022-12-22T04:50:53.556Z,32.92
2022-12-22T04:51:25.018Z,32.86
2022-12-22T04:51:56.427Z,33.00
2022-12-22T04:52:27.867Z,32.95
2022-12-22T04:52:59.231Z,32.78
2022-12-22T04:53:30.587Z,32.78
2022-12-22T04:54:02.113Z,32.74
2022-12-22T04:54:33.651Z,32.92
2022-12-22T04:55:05.038Z,32.93
2022-12-22T04:55:36.389Z,33.09
2022-12-22T04:56:07.790Z,32.94
2022-12-22T04:56:39.187Z,32.87
2022-12-22T04:57:10.589Z,33.08
2022-12-22T04:57:42.008Z,32.96
2022-12-22T04:58:13.448Z,32.98
2022-12-22T04:58:44.789Z,33.01
2022-12-22T04:59:16.261Z,32.97
2022-12-22T04:59:47.653Z,32.94
2022-12-22T05:00:19.043Z,33.06
2022-12-22T05:00:50.431Z,32.88
2022-12-22T05:01:22.043Z,32.99
2022-12-22T05:01:53.546Z,32.95
2022-12-22T05:02:25.189Z,32.82
2022-12-22T05:02:56.746Z,33.01
2022-12-22T05:03:28.251Z,32.94
2022-12-22T05:03:59.667Z,32.94
2022-12-22T05:04:31.040Z,33.08
2022-12-22T05:05:02.393Z,32.94
2022-12-22T05:05:33.771Z,33.19
2022-12-22T05:06:05.326Z,32.98
2022-12-22T05:06:36.799Z,33.03
2022-12-22T05:07:08.170Z,32.77
2022-12-22T05:07:39.569Z,32.96
2022-12-22T05:08:11.029Z,33.06
2022-12-22T05:08:42.393Z,32.90
2022-12-22T05:09:13.761Z,32.96
2022-12-22T05:09:45.146Z,32.94
2022-12-22T05:10:16.492Z,32.85
2022-12-22T05:10:47.944Z,32.96
2022-12-22T05:11:19.321Z,32.83
2022-12-22T05:11:50.787Z,33.05
2022-12-22T05:12:22.308Z,33.05
2022-12-22T05:12:53.715Z,33.02
2022-12-22T05:13:25.136Z,32.82
2022-12-22T05:13:59.652Z,32.85
2022-12-22T05:14:33.459Z,33.03
2022-12-22T05:15:05.073Z,33.02
2022-12-22T05:15:36.457Z,33.00
2022-12-22T05:16:07.885Z,32.93
2022-12-22T05:16:39.420Z,33.00
2022-12-22T05:17:10.898Z,33.13
2022-12-22T05:17:42.308Z,32.97
2022-12-22T05:18:13.698Z,32.78
2022-12-22T05:18:45.089Z,33.19
2022-12-22T05:19:16.487Z,32.94
2022-12-22T05:19:47.886Z,32.99
2022-12-22T05:20:19.245Z,32.93
2022-12-22T05:20:50.682Z,32.97
2022-12-22T05:21:22.101Z,33.14
2022-12-22T05:21:53.462Z,32.91
2022-12-22T05:22:24.870Z,32.94
2022-12-22T05:22:56.259Z,33.08
2022-12-22T05:23:27.643Z,33.02
2022-12-22T05:23:59.027Z,32.93
2022-12-22T05:24:31.029Z,33.06
2022-12-22T05:25:02.425Z,33.17
2022-12-22T05:25:35.585Z,32.98
2022-12-22T05:26:07.150Z,32.78
2022-12-22T05:26:38.546Z,33.01
2022-12-22T05:27:11.031Z,32.84
2022-12-22T05:27:42.456Z,33.12
2022-12-22T05:28:13.833Z,32.82
2022-12-22T05:28:45.220Z,33.05
2022-12-22T05:29:16.592Z,33.02
2022-12-22T05:29:48.019Z,32.88
2022-12-22T05:30:19.376Z,32.94
2022-12-22T05:30:50.832Z,33.01
2022-12-22T05:31:22.379Z,32.89
2022-12-22T05:31:53.824Z,32.79
2022-12-22T05:32:25.201Z,33.03
2022-12-22T05:32:56.583Z,32.87
2022-12-22T05:33:27.952Z,33.03
2022-12-22T05:33:59.348Z,33.04
2022-12-22T05:34:30.714Z,32.93
2022-12-22T05:35:02.093Z,32.92
2022-12-22T05:35:33.546Z,32.96
2022-12-22T05:36:05.440Z,33.19
2022-12-22T05:36:36.819Z,33.12
2022-12-22T05:37:08.187Z,33.00
2022-12-22T05:37:39.590Z,32.94
2022-12-22T05:38:11.018Z,32.96
2022-12-22T05:38:42.451Z,32.96
2022-12-22T05:39:13.904Z,32.86
2022-12-22T05:39:45.266Z,32.97
2022-12-22T05:40:16.664Z,32.94
2022-12-22T05:40:48.025Z,32.96
2022-12-22T05:41:19.427Z,33.04
2022-12-22T05:41:50.815Z,32.89
2022-12-22T05:42:22.207Z,33.05
2022-12-22T05:42:53.575Z,33.22
2022-12-22T05:43:25.071Z,33.04
2022-12-22T05:43:56.471Z,33.13
2022-12-22T05:44:27.886Z,33.18
2022-12-22T05:44:59.248Z,33.13
2022-12-22T05:45:30.618Z,32.91
2022-12-22T05:46:02.061Z,32.77
2022-12-22T05:46:33.466Z,33.06
2022-12-22T05:47:04.856Z,32.88
2022-12-22T05:47:36.234Z,33.22
2022-12-22T05:48:07.709Z,33.22
2022-12-22T05:48:40.043Z,33.21
2022-12-22T05:49:11.680Z,32.92
2022-12-22T05:49:43.120Z,32.95
2022-12-22T05:50:14.492Z,33.03
2022-12-22T05:50:45.887Z,33.13
2022-12-22T05:51:17.280Z,33.08
2022-12-22T05:51:48.652Z,33.09
2022-12-22T05:52:20.003Z,33.01
2022-12-22T05:52:51.411Z,33.04
2022-12-22T05:53:22.793Z,33.23
2022-12-22T05:53:54.232Z,33.04
2022-12-22T05:54:25.615Z,33.08
2022-12-22T05:54:56.972Z,33.06
2022-12-22T05:55:28.354Z,32.97
2022-12-22T05:55:59.783Z,32.92
2022-12-22T05:56:31.173Z,33.10
2022-12-22T05:57:02.580Z,33.15
2022-12-22T05:57:34.027Z,33.03
2022-12-22T05:58:05.395Z,32.91
2022-12-22T05:58:36.788Z,33.17
2022-12-22T05:59:08.237Z,33.03
2022-12-22T05:59:39.616Z,32.95
2022-12-22T06:00:10.983Z,32.95
2022-12-22T06:00:42.353Z,33.20
2022-12-22T06:01:13.799Z,33.17
2022-12-22T06:01:45.236Z,33.13
2022-12-22T06:02:16.801Z,33.11
2022-12-22T06:02:48.292Z,33.04
2022-12-22T06:03:19.826Z,33.02
2022-12-22T06:03:54.732Z,33.10
2022-12-22T06:04:31.051Z,33.21
2022-12-22T06:05:02.461Z,33.05
2022-12-22T06:05:33.881Z,33.00
2022-12-22T06:06:05.416Z,33.20
2022-12-22T06:06:36.831Z,32.91
2022-12-22T06:07:08.286Z,33.24
2022-12-22T06:07:39.631Z,33.20
2022-12-22T06:08:10.974Z,33.25
2022-12-22T06:08:42.344Z,32.83
2022-12-22T06:09:13.720Z,33.16
2022-12-22T06:09:45.118Z,33.35
2022-12-22T06:10:16.533Z,32.96
2022-12-22T06:10:47.857Z,33.27
2022-12-22T06:11:19.309Z,33.14
2022-12-22T06:11:50.684Z,33.08
2022-12-22T06:12:22.039Z,33.10
2022-12-22T06:12:53.513Z,33.16
2022-12-22T06:13:25.032Z,33.15
2022-12-22T06:13:56.368Z,33.16
2022-12-22T06:14:27.707Z,33.24
2022-12-22T06:14:59.184Z,33.20
2022-12-22T06:15:30.556Z,33.17
2022-12-22T06:16:02.049Z,32.89
2022-12-22T06:16:33.501Z,33.11
2022-12-22T06:17:04.946Z,32.95
2022-12-22T06:17:42.354Z,33.27
2022-12-22T06:18:16.070Z,33.22
2022-12-22T06:18:47.474Z,33.12
2022-12-22T06:19:18.856Z,33.14
2022-12-22T06:19:50.191Z,33.11
2022-12-22T06:20:21.642Z,33.09
2022-12-22T06:20:53.024Z,33.09
2022-12-22T06:21:24.391Z,33.12
2022-12-22T06:21:55.772Z,33.28
2022-12-22T06:22:27.195Z,33.19
2022-12-22T06:22:58.604Z,33.21
2022-12-22T06:23:30.019Z,33.14
2022-12-22T06:24:01.399Z,33.08
2022-12-22T06:24:32.795Z,33.03
2022-12-22T06:25:04.220Z,33.04
2022-12-22T06:25:35.765Z,33.10
2022-12-22T06:26:07.162Z,32.95
2022-12-22T06:26:38.547Z,33.16
2022-12-22T06:27:09.884Z,33.19
2022-12-22T06:27:41.313Z,33.29
2022-12-22T06:28:12.683Z,33.02
2022-12-22T06:28:44.011Z,33.11
2022-12-22T06:29:15.458Z,33.19
2022-12-22T06:29:46.801Z,33.32
2022-12-22T06:30:18.194Z,33.20
2022-12-22T06:30:49.636Z,32.99
2022-12-22T06:31:21.210Z,33.13
2022-12-22T06:31:52.635Z,33.15
2022-12-22T06:32:23.989Z,33.29
2022-12-22T06:32:55.536Z,33.15
2022-12-22T06:33:26.885Z,33.26
2022-12-22T06:33:58.256Z,33.22
2022-12-22T06:34:29.552Z,33.08
2022-12-22T06:35:00.933Z,33.13
2022-12-22T06:35:32.359Z,33.09
2022-12-22T06:36:04.041Z,32.92
2022-12-22T06:36:35.584Z,33.23
2022-12-22T06:37:06.979Z,33.21
2022-12-22T06:37:38.355Z,33.22
2022-12-22T06:38:09.684Z,33.28
2022-12-22T06:38:41.021Z,33.14
2022-12-22T06:39:12.384Z,33.27
2022-12-22T06:39:43.726Z,33.18
2022-12-22T06:40:15.120Z,33.38
2022-12-22T06:40:46.486Z,33.34
2022-12-22T06:41:17.927Z,33.42
2022-12-22T06:41:49.357Z,33.23
2022-12-22T06:42:20.783Z,33.22
2022-12-22T06:42:52.208Z,33.28
2022-12-22T06:43:23.568Z,33.13
2022-12-22T06:43:54.947Z,33.21
2022-12-22T06:44:26.313Z,33.13
2022-12-22T06:44:57.706Z,33.24
2022-12-22T06:45:29.072Z,33.25